Time;durP1;ratioP1;P1;durP2;ratioP2;P2;SDS_P1;SDS_P2;PMS_P1;PMS_P2;Temp;Humidity;BMP_temperature;BMP_pressure;BME280_temperature;BME280_humidity;BME280_pressure;Samples;Min_cycle;Max_cycle;Signal;HPM_P1;HPM_P2
2021/08/09 00:01:43;;;;;;;2.25;1.50;;;;;;;;;;6301793;22;19999;-42
2021/08/09 00:04:08;;;;;;;4.07;1.98;;;;;;;;;;6301978;22;20592;-42
2021/08/09 00:06:34;;;;;;;11.07;3.08;;;;;;;;;;6301661;22;20030;-42
2021/08/09 00:09:00;;;;;;;5.05;2.33;;;;;;;;;;6301243;22;20007;-42
2021/08/09 00:11:25;;;;;;;9.45;1.70;;;;;;;;;;6301156;22;20021;-42
2021/08/09 00:13:50;;;;;;;3.92;2.15;;;;;;;;;;6301460;22;20048;-42
2021/08/09 00:16:16;;;;;;;2.78;1.67;;;;;;;;;;6301603;22;19999;-41
2021/08/09 00:18:45;;;;;;;8.30;1.75;;;;;;;;;;6301343;22;20316;-41
2021/08/09 00:21:11;;;;;;;8.15;2.35;;;;;;;;;;6301389;22;20514;-42
2021/08/09 00:23:36;;;;;;;6.10;1.92;;;;;;;;;;6301554;22;19995;-43
2021/08/09 00:26:01;;;;;;;6.47;3.30;;;;;;;;;;6301398;22;19999;-43
2021/08/09 00:28:27;;;;;;;12.65;2.45;;;;;;;;;;6300998;22;20007;-43
2021/08/09 00:30:52;;;;;;;18.45;3.35;;;;;;;;;;6301096;22;20003;-34
2021/08/09 00:33:17;;;;;;;17.52;3.75;;;;;;;;;;6301262;22;19999;-34
2021/08/09 00:35:43;;;;;;;4.13;1.95;;;;;;;;;;6301413;22;20333;-35
2021/08/09 00:38:08;;;;;;;1.77;1.05;;;;;;;;;;6300926;22;20011;-34
2021/08/09 00:40:33;;;;;;;4.80;1.40;;;;;;;;;;6300939;22;19995;-38
2021/08/09 00:42:59;;;;;;;9.52;2.22;;;;;;;;;;6301545;22;19999;-34
2021/08/09 00:45:24;;;;;;;6.13;2.17;;;;;;;;;;6301018;22;20015;-34
2021/08/09 00:47:49;;;;;;;9.07;2.70;;;;;;;;;;6300984;22;20074;-33
2021/08/09 00:50:15;;;;;;;4.82;2.17;;;;;;;;;;6301647;22;19996;-33
2021/08/09 00:52:40;;;;;;;8.63;1.88;;;;;;;;;;6301158;22;20537;-33
2021/08/09 00:55:06;;;;;;;9.95;2.42;;;;;;;;;;6300819;22;20006;-34
2021/08/09 00:57:31;;;;;;;8.23;2.17;;;;;;;;;;6300996;22;19999;-34
2021/08/09 00:59:58;;;;;;;9.45;2.60;;;;;;;;;;6301629;22;20484;-34
2021/08/09 01:02:23;;;;;;;4.20;1.98;;;;;;;;;;6300981;22;19995;-35
2021/08/09 01:04:48;;;;;;;4.57;2.00;;;;;;;;;;6301050;22;20007;-34
2021/08/09 01:07:13;;;;;;;7.72;2.60;;;;;;;;;;6300954;22;20023;-34
2021/08/09 01:09:51;;;;;;;10.20;3.45;;;;;;;;;;6301274;22;20180;-34
2021/08/09 01:12:23;;;;;;;7.15;1.92;;;;;;;;;;6300704;22;20078;-34
2021/08/09 01:14:54;;;;;;;4.85;2.47;;;;;;;;;;6301158;22;19995;-34
2021/08/09 01:17:21;;;;;;;3.88;2.45;;;;;;;;;;6301610;22;20135;-35
2021/08/09 01:20:07;;;;;;;14.00;2.70;;;;;;;;;;6301355;22;20141;-34
2021/08/09 01:22:33;;;;;;;4.10;2.15;;;;;;;;;;6300382;22;20392;-34
2021/08/09 01:25:12;;;;;;;5.38;1.80;;;;;;;;;;6301128;22;20059;-35
2021/08/09 01:27:39;;;;;;;5.65;2.60;;;;;;;;;;6300384;22;20057;-34
2021/08/09 01:30:08;;;;;;;13.65;4.43;;;;;;;;;;6300949;22;20074;-34
2021/08/09 01:32:36;;;;;;;3.35;2.67;;;;;;;;;;6300703;22;20060;-35
2021/08/09 01:35:02;;;;;;;6.28;2.47;;;;;;;;;;6300808;22;20324;-35
2021/08/09 01:37:28;;;;;;;3.25;2.30;;;;;;;;;;6302029;22;19995;-34
2021/08/09 01:39:54;;;;;;;10.48;2.65;;;;;;;;;;6302491;22;20000;-34
2021/08/09 01:42:19;;;;;;;12.65;4.03;;;;;;;;;;6302595;22;19995;-34
2021/08/09 01:44:46;;;;;;;6.65;3.42;;;;;;;;;;6303165;22;20053;-35
2021/08/09 01:47:11;;;;;;;4.55;1.60;;;;;;;;;;6302564;22;19991;-34
2021/08/09 01:49:37;;;;;;;6.43;2.47;;;;;;;;;;6303302;22;20074;-34
2021/08/09 01:52:03;;;;;;;7.00;1.95;;;;;;;;;;6302938;22;20003;-34
2021/08/09 01:54:28;;;;;;;9.77;2.53;;;;;;;;;;6302485;22;20450;-34
2021/08/09 01:56:54;;;;;;;11.63;2.63;;;;;;;;;;6303099;22;19999;-34
2021/08/09 01:59:22;;;;;;;8.00;2.78;;;;;;;;;;6302948;22;19999;-34
2021/08/09 02:01:47;;;;;;;9.75;2.25;;;;;;;;;;6303055;22;19999;-33
2021/08/09 02:04:13;;;;;;;11.23;3.83;;;;;;;;;;6302442;22;20336;-33
2021/08/09 02:06:38;;;;;;;5.90;1.83;;;;;;;;;;6302650;22;19996;-33
2021/08/09 02:09:05;;;;;;;8.40;2.53;;;;;;;;;;6302378;22;20497;-34
2021/08/09 02:11:53;;;;;;;6.75;2.10;;;;;;;;;;6302548;22;19999;-34
2021/08/09 02:14:21;;;;;;;4.78;3.00;;;;;;;;;;6289261;22;20007;-33
2021/08/09 02:17:04;;;;;;;16.30;2.95;;;;;;;;;;6302882;22;20000;-34
2021/08/09 02:19:38;;;;;;;6.95;2.97;;;;;;;;;;6302264;22;20007;-34
2021/08/09 02:22:12;;;;;;;5.50;2.05;;;;;;;;;;6302054;22;20018;-35
2021/08/09 02:24:45;;;;;;;11.27;2.95;;;;;;;;;;6302534;22;20211;-34
2021/08/09 02:27:12;;;;;;;11.02;2.90;;;;;;;;;;6302631;22;20035;-35
2021/08/09 02:29:40;;;;;;;5.28;2.55;;;;;;;;;;6302280;22;19995;-35
2021/08/09 02:32:07;;;;;;;4.70;1.98;;;;;;;;;;6302525;22;20003;-35
2021/08/09 02:34:33;;;;;;;6.13;2.25;;;;;;;;;;6302139;22;20082;-35
2021/08/09 02:37:03;;;;;;;5.55;2.45;;;;;;;;;;6302552;22;20003;-35
2021/08/09 02:39:30;;;;;;;8.80;2.88;;;;;;;;;;6301788;22;20010;-35
2021/08/09 02:41:56;;;;;;;2.63;1.67;;;;;;;;;;6302364;22;19991;-35
2021/08/09 02:44:21;;;;;;;8.23;3.17;;;;;;;;;;6302598;22;20003;-34
2021/08/09 02:46:47;;;;;;;6.63;3.42;;;;;;;;;;6302515;22;19999;-34
2021/08/09 02:49:12;;;;;;;8.38;2.58;;;;;;;;;;6301878;22;20052;-34
2021/08/09 02:51:37;;;;;;;4.68;2.08;;;;;;;;;;6302232;22;20048;-34
2021/08/09 02:54:03;;;;;;;5.10;3.20;;;;;;;;;;6301768;22;20027;-34
2021/08/09 02:56:30;;;;;;;9.07;2.05;;;;;;;;;;6301693;22;20321;-34
2021/08/09 02:58:55;;;;;;;4.60;2.08;;;;;;;;;;6302347;22;19995;-34
2021/08/09 03:01:22;;;;;;;6.57;2.33;;;;;;;;;;6302414;22;20066;-34
2021/08/09 03:03:52;;;;;;;9.30;2.47;;;;;;;;;;6301868;22;20003;-34
2021/08/09 03:06:18;;;;;;;3.72;3.03;;;;;;;;;;6301597;22;20006;-33
2021/08/09 03:08:43;;;;;;;3.88;2.35;;;;;;;;;;6301807;22;19991;-34
2021/08/09 03:11:08;;;;;;;3.42;2.03;;;;;;;;;;6302027;22;20003;-34
2021/08/09 03:13:34;;;;;;;8.40;2.40;;;;;;;;;;6301896;22;20013;-34
2021/08/09 03:15:59;;;;;;;4.43;3.00;;;;;;;;;;6302003;22;20420;-34
2021/08/09 03:18:32;;;;;;;4.25;2.40;;;;;;;;;;6301996;22;20014;-34
2021/08/09 03:20:58;;;;;;;11.48;3.13;;;;;;;;;;6301650;22;19995;-34
2021/08/09 03:23:23;;;;;;;9.05;3.28;;;;;;;;;;6301306;22;20073;-33
2021/08/09 03:25:48;;;;;;;14.38;5.15;;;;;;;;;;6301760;22;19999;-34
2021/08/09 03:28:14;;;;;;;8.50;2.25;;;;;;;;;;6301944;22;20025;-34
2021/08/09 03:30:39;;;;;;;7.60;3.15;;;;;;;;;;6302131;22;20031;-33
2021/08/09 03:33:04;;;;;;;2.30;1.95;;;;;;;;;;6301193;22;19995;-34
2021/08/09 03:35:29;;;;;;;3.83;1.77;;;;;;;;;;6301735;22;20066;-33
2021/08/09 03:37:55;;;;;;;5.68;2.75;;;;;;;;;;6302039;22;20424;-34
2021/08/09 03:40:20;;;;;;;6.85;2.92;;;;;;;;;;6301395;22;20520;-34
2021/08/09 03:42:45;;;;;;;4.65;2.25;;;;;;;;;;6302136;22;20071;-33
2021/08/09 03:45:11;;;;;;;6.75;2.53;;;;;;;;;;6301399;22;20444;-33
2021/08/09 03:47:36;;;;;;;5.22;2.25;;;;;;;;;;6301842;22;20045;-33
2021/08/09 03:50:01;;;;;;;4.60;2.65;;;;;;;;;;6301382;22;20003;-33
2021/08/09 03:52:27;;;;;;;9.15;2.42;;;;;;;;;;6301881;22;20436;-33
2021/08/09 03:54:52;;;;;;;5.07;3.28;;;;;;;;;;6301947;22;20472;-33
2021/08/09 03:57:17;;;;;;;5.45;3.13;;;;;;;;;;6302058;22;20486;-34
2021/08/09 03:59:43;;;;;;;7.07;2.85;;;;;;;;;;6301583;22;20003;-34
2021/08/09 04:02:14;;;;;;;8.77;2.67;;;;;;;;;;6301459;22;19999;-34
2021/08/09 04:04:39;;;;;;;6.50;3.10;;;;;;;;;;6301138;22;19987;-34
2021/08/09 04:07:04;;;;;;;8.68;2.78;;;;;;;;;;6301620;22;20005;-34
2021/08/09 04:09:35;;;;;;;4.90;3.53;;;;;;;;;;6301082;22;20011;-34
2021/08/09 04:12:00;;;;;;;;;;;;;;;;;;6302089;22;19995;-34
2021/08/09 04:14:26;;;;;;;7.70;3.67;;;;;;;;;;6301110;22;19907;-34
2021/08/09 04:16:51;;;;;;;7.68;3.65;;;;;;;;;;6301825;22;20204;-34
2021/08/09 04:19:16;;;;;;;8.13;3.22;;;;;;;;;;6301229;22;20011;-34
2021/08/09 04:21:42;;;;;;;2.50;2.00;;;;;;;;;;6301328;22;20475;-34
2021/08/09 04:24:07;;;;;;;5.68;2.65;;;;;;;;;;6301651;22;20486;-34
2021/08/09 04:26:33;;;;;;;6.68;2.83;;;;;;;;;;6301475;22;20338;-34
2021/08/09 04:28:59;;;;;;;5.65;2.90;;;;;;;;;;6301476;22;20085;-34
2021/08/09 04:31:24;;;;;;;5.45;3.60;;;;;;;;;;6301654;22;20019;-34
2021/08/09 04:33:50;;;;;;;6.60;2.50;;;;;;;;;;6300982;22;20463;-34
2021/08/09 04:36:17;;;;;;;9.45;3.90;;;;;;;;;;6300944;22;19992;-34
2021/08/09 04:38:42;;;;;;;5.63;2.28;;;;;;;;;;6301345;22;20003;-34
2021/08/09 04:41:08;;;;;;;4.47;2.78;;;;;;;;;;6301250;22;20516;-35
2021/08/09 04:43:35;;;;;;;7.90;2.83;;;;;;;;;;6301720;22;20449;-35
2021/08/09 04:46:00;;;;;;;4.90;2.90;;;;;;;;;;6301124;22;20034;-34
2021/08/09 04:48:26;;;;;;;9.43;3.00;;;;;;;;;;6301418;22;19996;-34
2021/08/09 04:50:51;;;;;;;5.63;3.22;;;;;;;;;;6301354;22;20021;-34
2021/08/09 04:53:16;;;;;;;7.70;3.58;;;;;;;;;;6301232;22;20000;-34
2021/08/09 04:55:41;;;;;;;3.28;2.40;;;;;;;;;;6301354;22;19999;-34
2021/08/09 04:58:07;;;;;;;5.45;3.35;;;;;;;;;;6301143;22;20413;-35
2021/08/09 05:00:32;;;;;;;8.18;3.33;;;;;;;;;;6301753;22;20006;-34
2021/08/09 05:02:57;;;;;;;7.13;3.60;;;;;;;;;;6301124;22;20425;-34
2021/08/09 05:05:23;;;;;;;8.82;2.95;;;;;;;;;;6300950;22;20003;-35
2021/08/09 05:07:49;;;;;;;9.23;2.58;;;;;;;;;;6301147;22;20065;-34
2021/08/09 05:10:14;;;;;;;7.35;2.75;;;;;;;;;;6300959;22;20052;-34
2021/08/09 05:12:39;;;;;;;4.03;2.45;;;;;;;;;;6302640;22;20007;-35
2021/08/09 05:15:06;;;;;;;6.95;3.50;;;;;;;;;;6303075;22;20310;-35
2021/08/09 05:17:33;;;;;;;15.45;5.60;;;;;;;;;;6303501;22;19996;-34
2021/08/09 05:19:58;;;;;;;4.95;2.80;;;;;;;;;;6303205;22;20000;-36
2021/08/09 05:22:23;;;;;;;19.30;4.53;;;;;;;;;;6303107;22;20022;-35
2021/08/09 05:24:49;;;;;;;9.95;2.67;;;;;;;;;;6303351;22;20010;-34
2021/08/09 05:27:14;;;;;;;5.10;2.85;;;;;;;;;;6303144;22;19996;-34
2021/08/09 05:29:39;;;;;;;11.05;4.50;;;;;;;;;;6303186;22;19999;-35
2021/08/09 05:32:05;;;;;;;13.10;3.92;;;;;;;;;;6303584;22;20003;-34
2021/08/09 05:34:30;;;;;;;8.13;2.85;;;;;;;;;;6303304;22;20003;-34
2021/08/09 05:36:56;;;;;;;3.15;2.60;;;;;;;;;;6303395;22;20352;-34
2021/08/09 05:39:21;;;;;;;9.80;3.80;;;;;;;;;;6303113;22;20367;-35
2021/08/09 05:41:46;;;;;;;6.25;2.75;;;;;;;;;;6301107;22;20002;-34
2021/08/09 05:44:12;;;;;;;5.03;2.35;;;;;;;;;;6303239;22;20030;-35
2021/08/09 05:46:37;;;;;;;12.18;3.28;;;;;;;;;;6303036;22;20033;-36
2021/08/09 05:49:04;;;;;;;4.30;2.28;;;;;;;;;;6302674;22;20441;-34
2021/08/09 05:51:29;;;;;;;3.22;1.98;;;;;;;;;;6303418;22;20003;-34
2021/08/09 05:53:55;;;;;;;18.40;6.57;;;;;;;;;;6302848;22;20007;-34
2021/08/09 05:56:20;;;;;;;20.55;13.32;;;;;;;;;;6302584;22;20003;-35
2021/08/09 05:58:45;;;;;;;28.77;16.42;;;;;;;;;;6302804;22;19995;-34
2021/08/09 06:01:11;;;;;;;28.35;15.00;;;;;;;;;;6302823;22;20003;-35
2021/08/09 06:03:37;;;;;;;14.73;9.50;;;;;;;;;;6302737;22;20151;-33
2021/08/09 06:06:02;;;;;;;10.18;6.68;;;;;;;;;;6302851;22;19995;-34
2021/08/09 06:08:27;;;;;;;10.02;7.05;;;;;;;;;;6303029;22;20006;-36
2021/08/09 06:10:53;;;;;;;15.35;8.43;;;;;;;;;;6302657;22;20321;-34
2021/08/09 06:13:18;;;;;;;9.23;7.32;;;;;;;;;;6301827;22;20464;-35
2021/08/09 06:15:43;;;;;;;8.80;5.55;;;;;;;;;;6302684;22;20022;-35
2021/08/09 06:18:09;;;;;;;14.77;4.65;;;;;;;;;;6302169;22;20420;-35
2021/08/09 06:20:36;;;;;;;22.25;5.10;;;;;;;;;;6302641;22;20066;-34
2021/08/09 06:23:01;;;;;;;4.95;2.88;;;;;;;;;;6301693;22;20352;-34
2021/08/09 06:25:27;;;;;;;9.40;4.85;;;;;;;;;;6301920;22;19999;-35
2021/08/09 06:27:52;;;;;;;6.85;3.08;;;;;;;;;;6301903;22;19999;-35
2021/08/09 06:30:17;;;;;;;5.40;2.92;;;;;;;;;;6301991;22;20003;-33
2021/08/09 06:32:43;;;;;;;10.35;3.45;;;;;;;;;;6301919;22;20010;-35
2021/08/09 06:35:08;;;;;;;7.07;4.25;;;;;;;;;;6302017;22;20044;-35
2021/08/09 06:37:35;;;;;;;39.63;8.25;;;;;;;;;;6301971;22;20040;-33
2021/08/09 06:40:00;;;;;;;6.03;2.60;;;;;;;;;;6302158;22;20048;-34
2021/08/09 06:42:26;;;;;;;9.68;2.58;;;;;;;;;;6302109;22;20003;-35
2021/08/09 06:44:51;;;;;;;10.45;2.75;;;;;;;;;;6302197;22;20101;-35
2021/08/09 06:47:16;;;;;;;10.18;3.72;;;;;;;;;;6301963;22;20037;-35
2021/08/09 06:49:41;;;;;;;4.40;2.53;;;;;;;;;;6301910;22;19999;-35
2021/08/09 06:52:07;;;;;;;5.43;2.38;;;;;;;;;;6301748;22;20002;-37
2021/08/09 06:54:32;;;;;;;6.78;1.90;;;;;;;;;;6302366;22;19999;-34
2021/08/09 06:56:57;;;;;;;4.70;2.17;;;;;;;;;;6301947;22;20739;-36
2021/08/09 06:59:23;;;;;;;10.45;4.28;;;;;;;;;;6302108;22;20019;-34
2021/08/09 07:01:48;;;;;;;2.53;2.20;;;;;;;;;;6302232;22;20021;-34
2021/08/09 07:04:13;;;;;;;12.52;2.90;;;;;;;;;;6301999;22;20082;-34
2021/08/09 07:06:39;;;;;;;9.52;2.83;;;;;;;;;;6301486;22;20317;-35
2021/08/09 07:09:04;;;;;;;6.45;4.15;;;;;;;;;;6301800;22;20048;-34
2021/08/09 07:11:30;;;;;;;6.72;2.30;;;;;;;;;;6301916;22;20444;-35
2021/08/09 07:13:55;;;;;;;10.82;5.68;;;;;;;;;;6302081;22;20003;-35
2021/08/09 07:16:24;;;;;;;5.47;4.05;;;;;;;;;;6301717;22;20421;-35
2021/08/09 07:18:49;;;;;;;12.82;4.18;;;;;;;;;;6302070;22;19999;-37
2021/08/09 07:21:14;;;;;;;4.18;2.17;;;;;;;;;;6301375;22;20011;-35
2021/08/09 07:23:40;;;;;;;6.05;3.70;;;;;;;;;;6301689;22;20057;-36
2021/08/09 07:26:05;;;;;;;5.57;3.80;;;;;;;;;;6301778;22;20007;-36
2021/08/09 07:28:30;;;;;;;18.23;4.45;;;;;;;;;;6300922;22;20004;-36
2021/08/09 07:30:56;;;;;;;10.43;4.32;;;;;;;;;;6300858;22;20430;-35
2021/08/09 07:33:21;;;;;;;15.77;4.78;;;;;;;;;;6300456;22;20003;-36
2021/08/09 07:35:46;;;;;;;9.73;3.30;;;;;;;;;;6300512;22;19998;-36
2021/08/09 07:38:12;;;;;;;6.22;2.55;;;;;;;;;;6300099;22;19995;-35
2021/08/09 07:40:37;;;;;;;5.93;3.15;;;;;;;;;;6300756;22;20003;-35
2021/08/09 07:43:02;;;;;;;4.05;2.97;;;;;;;;;;6298798;22;20448;-35
2021/08/09 07:45:28;;;;;;;4.45;2.58;;;;;;;;;;6300775;22;20702;-36
2021/08/09 07:47:53;;;;;;;5.40;2.03;;;;;;;;;;6300669;22;20420;-35
2021/08/09 07:50:19;;;;;;;11.82;2.72;;;;;;;;;;6300802;22;20094;-36
2021/08/09 07:52:44;;;;;;;6.00;2.20;;;;;;;;;;6300466;22;19999;-36
2021/08/09 07:55:10;;;;;;;6.13;2.47;;;;;;;;;;6300522;22;20014;-35
2021/08/09 07:57:35;;;;;;;7.35;1.92;;;;;;;;;;6300658;22;20460;-34
2021/08/09 08:00:00;;;;;;;4.20;2.42;;;;;;;;;;6300405;22;19999;-33
2021/08/09 08:02:26;;;;;;;9.98;2.08;;;;;;;;;;6300263;22;20002;-33
2021/08/09 08:04:51;;;;;;;5.28;2.10;;;;;;;;;;6300836;22;19987;-33
2021/08/09 08:07:16;;;;;;;3.08;1.40;;;;;;;;;;6300519;22;19995;-41
2021/08/09 08:09:42;;;;;;;6.57;2.58;;;;;;;;;;6300331;22;20703;-33
2021/08/09 08:12:07;;;;;;;7.82;3.30;;;;;;;;;;6300478;22;20337;-34
2021/08/09 08:14:32;;;;;;;4.13;1.60;;;;;;;;;;6300477;22;20313;-33
2021/08/09 08:16:58;;;;;;;5.32;3.00;;;;;;;;;;6300348;22;20484;-33
2021/08/09 08:19:23;;;;;;;3.40;2.42;;;;;;;;;;6300553;22;20752;-34
2021/08/09 08:21:48;;;;;;;3.45;1.73;;;;;;;;;;6300472;22;20163;-33
2021/08/09 08:24:14;;;;;;;3.20;2.33;;;;;;;;;;6300255;22;20116;-33
2021/08/09 08:26:40;;;;;;;6.93;1.90;;;;;;;;;;6300034;22;20082;-34
2021/08/09 08:29:05;;;;;;;5.45;2.53;;;;;;;;;;6300355;22;20006;-33
2021/08/09 08:31:30;;;;;;;13.65;2.65;;;;;;;;;;6300463;22;20074;-33
2021/08/09 08:33:55;;;;;;;5.68;2.17;;;;;;;;;;6298378;22;20336;-38
2021/08/09 08:36:21;;;;;;;3.67;2.28;;;;;;;;;;6300322;22;20372;-36
2021/08/09 08:38:46;;;;;;;14.77;3.55;;;;;;;;;;6300384;22;20452;-37
2021/08/09 08:41:11;;;;;;;7.03;2.63;;;;;;;;;;6299978;22;20037;-35
2021/08/09 08:43:37;;;;;;;10.40;3.17;;;;;;;;;;6300336;22;20048;-36
2021/08/09 08:46:03;;;;;;;3.08;2.00;;;;;;;;;;6300009;22;20078;-39
2021/08/09 08:48:30;;;;;;;3.38;1.83;;;;;;;;;;6300122;22;19999;-34
2021/08/09 08:50:58;;;;;;;3.95;3.05;;;;;;;;;;6300112;22;20057;-34
2021/08/09 08:53:25;;;;;;;2.00;1.48;;;;;;;;;;6299756;22;20014;-34
2021/08/09 08:55:51;;;;;;;8.15;2.63;;;;;;;;;;6300294;22;20425;-34
2021/08/09 08:58:16;;;;;;;11.50;3.05;;;;;;;;;;6299982;22;20062;-35
2021/08/09 09:00:42;;;;;;;4.47;2.92;;;;;;;;;;6299804;22;20409;-34
2021/08/09 09:03:21;;;;;;;2.75;1.77;;;;;;;;;;6299931;22;20550;-35
2021/08/09 09:06:03;;;;;;;4.82;3.03;;;;;;;;;;6301074;22;19996;-34
2021/08/09 09:08:40;;;;;;;2.63;2.00;;;;;;;;;;6300634;22;20003;-34
2021/08/09 09:11:06;;;;;;;5.90;2.33;;;;;;;;;;6300477;22;19995;-35
2021/08/09 09:13:32;;;;;;;4.95;1.33;;;;;;;;;;6300799;22;20018;-43
2021/08/09 09:15:59;;;;;;;5.40;1.38;;;;;;;;;;6301287;22;19999;-44
2021/08/09 09:18:27;;;;;;;11.18;1.75;;;;;;;;;;6300675;22;20424;-42
2021/08/09 09:20:52;;;;;;;1.08;0.90;;;;;;;;;;6300727;22;20078;-43
2021/08/09 09:23:19;;;;;;;6.95;3.35;;;;;;;;;;6301290;22;20034;-44
2021/08/09 09:25:45;;;;;;;3.70;1.30;;;;;;;;;;6300660;22;20003;-44
2021/08/09 09:28:26;;;;;;;3.25;1.48;;;;;;;;;;6300182;22;20029;-45
2021/08/09 09:30:51;;;;;;;;;;;;;;;;;;6301515;22;20022;-34
2021/08/09 09:33:16;;;;;;;5.33;2.37;;;;;;;;;;6300945;22;20316;-35
2021/08/09 09:35:42;;;;;;;31.73;3.53;;;;;;;;;;6300874;22;20680;-34
2021/08/09 09:38:07;;;;;;;6.97;1.75;;;;;;;;;;6300816;22;19999;-36
2021/08/09 09:40:39;;;;;;;4.10;1.30;;;;;;;;;;6300120;22;19991;-36
2021/08/09 09:43:15;;;;;;;4.28;2.10;;;;;;;;;;6301238;22;20074;-36
2021/08/09 09:45:48;;;;;;;5.70;1.52;;;;;;;;;;6300970;22;20484;-36
2021/08/09 09:48:14;;;;;;;2.35;1.35;;;;;;;;;;6300277;22;20003;-36
2021/08/09 09:50:41;;;;;;;10.00;1.50;;;;;;;;;;6300714;22;20010;-35
2021/08/09 09:53:17;;;;;;;5.45;1.50;;;;;;;;;;6300425;22;20049;-36
2021/08/09 09:55:43;;;;;;;4.28;1.52;;;;;;;;;;6299646;22;20030;-35
2021/08/09 09:58:08;;;;;;;5.55;1.98;;;;;;;;;;6301115;22;20000;-35
2021/08/09 10:00:34;;;;;;;8.15;2.20;;;;;;;;;;6301882;22;20038;-36
2021/08/09 10:02:59;;;;;;;9.77;1.65;;;;;;;;;;6301588;22;20007;-35
2021/08/09 10:05:24;;;;;;;2.30;0.85;;;;;;;;;;6302206;22;20100;-35
2021/08/09 10:07:52;;;;;;;5.22;1.70;;;;;;;;;;6302151;22;20018;-36
2021/08/09 10:10:22;;;;;;;2.17;1.25;;;;;;;;;;6301280;22;20003;-35
2021/08/09 10:12:48;;;;;;;2.85;1.48;;;;;;;;;;6301720;22;20007;-35
2021/08/09 10:15:16;;;;;;;6.22;1.33;;;;;;;;;;6301269;22;19999;-35
2021/08/09 10:17:42;;;;;;;2.08;0.98;;;;;;;;;;6301164;22;20057;-35
2021/08/09 10:20:08;;;;;;;9.75;3.85;;;;;;;;;;6302253;22;20022;-35
2021/08/09 10:22:34;;;;;;;4.20;1.77;;;;;;;;;;6301712;22;20015;-36
2021/08/09 10:25:00;;;;;;;2.30;1.30;;;;;;;;;;6301957;22;20056;-36
2021/08/09 10:27:44;;;;;;;1.75;1.08;;;;;;;;;;6302137;22;20066;-36
2021/08/09 10:30:10;;;;;;;8.93;2.10;;;;;;;;;;6302075;22;20404;-37
2021/08/09 10:32:46;;;;;;;2.47;1.48;;;;;;;;;;6301997;22;20011;-36
2021/08/09 10:35:40;;;;;;;1.20;1.10;;;;;;;;;;6302517;22;20003;-37
2021/08/09 10:38:15;;;;;;;1.85;1.10;;;;;;;;;;6281496;22;20504;-36
2021/08/09 10:40:41;;;;;;;2.15;1.63;;;;;;;;;;6301840;22;19995;-36
2021/08/09 10:43:07;;;;;;;6.10;1.48;;;;;;;;;;6301984;22;20007;-36
2021/08/09 10:45:36;;;;;;;2.50;1.90;;;;;;;;;;6301904;22;20025;-38
2021/08/09 10:48:04;;;;;;;4.20;2.30;;;;;;;;;;6301943;22;20002;-38
2021/08/09 10:50:34;;;;;;;2.88;1.60;;;;;;;;;;6300596;22;20383;-36
2021/08/09 10:52:59;;;;;;;2.80;1.70;;;;;;;;;;6300327;22;20023;-36
2021/08/09 10:55:31;;;;;;;4.13;1.92;;;;;;;;;;6299728;22;20010;-36
2021/08/09 10:57:57;;;;;;;3.60;1.70;;;;;;;;;;6299811;22;20078;-39
2021/08/09 11:00:40;;;;;;;2.35;1.80;;;;;;;;;;6300120;22;20030;-36
2021/08/09 11:03:10;;;;;;;12.75;2.05;;;;;;;;;;6300492;22;20057;-36
2021/08/09 11:05:35;;;;;;;4.10;2.22;;;;;;;;;;6300971;22;20326;-37
2021/08/09 11:08:15;;;;;;;6.05;1.67;;;;;;;;;;6301647;22;20509;-36
2021/08/09 11:11:00;;;;;;;6.88;1.77;;;;;;;;;;6301685;22;20009;-36
2021/08/09 11:13:29;;;;;;;6.38;1.83;;;;;;;;;;6301483;22;20004;-36
2021/08/09 11:15:59;;;;;;;3.37;1.70;;;;;;;;;;6301292;22;20005;-37
2021/08/09 11:18:27;;;;;;;2.35;1.55;;;;;;;;;;6301420;22;19995;-36
2021/08/09 11:21:08;;;;;;;2.72;1.73;;;;;;;;;;6301419;22;20044;-36
2021/08/09 11:23:35;;;;;;;3.40;2.00;;;;;;;;;;6301525;22;20007;-36
2021/08/09 11:26:00;;;;;;;7.88;1.90;;;;;;;;;;6301738;22;20007;-36
2021/08/09 11:28:26;;;;;;;2.65;1.48;;;;;;;;;;6300579;22;20470;-36
2021/08/09 11:30:53;;;;;;;8.23;2.33;;;;;;;;;;6300998;22;19995;-36
2021/08/09 11:33:19;;;;;;;7.32;1.92;;;;;;;;;;6301152;22;20050;-35
2021/08/09 11:35:45;;;;;;;6.80;2.00;;;;;;;;;;6301625;22;20023;-35
2021/08/09 11:38:11;;;;;;;5.63;1.70;;;;;;;;;;6301357;22;20053;-44
2021/08/09 11:40:44;;;;;;;2.35;1.30;;;;;;;;;;6301348;22;20048;-45
2021/08/09 11:43:10;;;;;;;1.75;1.17;;;;;;;;;;6301569;22;19999;-46
2021/08/09 11:45:36;;;;;;;3.13;1.42;;;;;;;;;;6301908;22;20017;-44
2021/08/09 11:48:02;;;;;;;2.33;1.02;;;;;;;;;;6301357;22;20075;-46
2021/08/09 11:50:33;;;;;;;2.85;1.40;;;;;;;;;;6301688;22;20019;-46
2021/08/09 11:52:58;;;;;;;6.90;2.42;;;;;;;;;;6301737;22;20049;-45
2021/08/09 11:55:24;;;;;;;2.33;1.40;;;;;;;;;;6301305;22;19999;-44
2021/08/09 11:57:49;;;;;;;2.40;1.65;;;;;;;;;;6301545;22;20318;-45
2021/08/09 12:00:15;;;;;;;3.33;1.05;;;;;;;;;;6301551;22;20040;-45
2021/08/09 12:02:59;;;;;;;3.90;1.92;;;;;;;;;;6299657;22;20004;-44
2021/08/09 12:05:24;;;;;;;6.43;2.13;;;;;;;;;;6301297;22;20106;-44
2021/08/09 12:07:57;;;;;;;3.90;1.65;;;;;;;;;;6301171;22;20034;-44
2021/08/09 12:10:26;;;;;;;1.88;1.13;;;;;;;;;;6300598;22;20322;-44
2021/08/09 12:12:51;;;;;;;4.40;3.33;;;;;;;;;;6299876;22;20000;-44
2021/08/09 12:15:16;;;;;;;6.47;2.35;;;;;;;;;;6299439;22;19996;-45
2021/08/09 12:17:42;;;;;;;4.22;1.25;;;;;;;;;;6299763;22;19995;-46
2021/08/09 12:20:14;;;;;;;9.70;2.83;;;;;;;;;;6299409;22;20441;-46
2021/08/09 12:22:40;;;;;;;3.17;1.42;;;;;;;;;;6299364;22;20043;-46
2021/08/09 12:25:15;;;;;;;2.65;1.63;;;;;;;;;;6298203;22;20625;-46
2021/08/09 12:27:41;;;;;;;2.45;1.30;;;;;;;;;;6298362;22;20007;-45
2021/08/09 12:30:12;;;;;;;3.45;1.80;;;;;;;;;;6299554;22;20033;-46
2021/08/09 12:32:58;;;;;;;3.58;1.50;;;;;;;;;;6298933;22;20669;-46
2021/08/09 12:35:31;;;;;;;1.98;1.38;;;;;;;;;;6299098;22;20686;-45
2021/08/09 12:37:56;;;;;;;5.22;1.52;;;;;;;;;;6299778;22;19999;-46
2021/08/09 12:40:22;;;;;;;2.17;1.13;;;;;;;;;;6299161;22;19995;-47
2021/08/09 12:43:00;;;;;;;8.27;1.50;;;;;;;;;;6299313;22;20509;-47
2021/08/09 12:45:26;;;;;;;11.10;1.63;;;;;;;;;;6299106;22;20064;-37
2021/08/09 12:47:51;;;;;;;5.55;2.55;;;;;;;;;;6299306;22;19995;-37
2021/08/09 12:50:16;;;;;;;4.32;2.30;;;;;;;;;;6299513;22;20029;-36
2021/08/09 12:52:41;;;;;;;2.22;1.25;;;;;;;;;;6299143;22;20420;-35
2021/08/09 12:55:07;;;;;;;3.53;1.58;;;;;;;;;;6299534;22;20048;-36
2021/08/09 12:57:34;;;;;;;4.80;1.73;;;;;;;;;;6298979;22;19999;-36
2021/08/09 12:59:59;;;;;;;6.55;2.08;;;;;;;;;;6299410;22;20069;-36
2021/08/09 13:02:24;;;;;;;1.67;1.08;;;;;;;;;;6300887;22;20006;-36
2021/08/09 13:04:50;;;;;;;3.75;2.28;;;;;;;;;;6301242;22;20003;-36
2021/08/09 13:07:16;;;;;;;5.60;1.90;;;;;;;;;;6300041;22;20072;-36
2021/08/09 13:09:41;;;;;;;2.00;1.08;;;;;;;;;;6298661;22;20420;-36
2021/08/09 13:12:06;;;;;;;2.83;1.85;;;;;;;;;;6300096;22;20313;-37
2021/08/09 13:14:32;;;;;;;2.78;1.65;;;;;;;;;;6300389;22;20052;-34
2021/08/09 13:16:59;;;;;;;4.47;1.60;;;;;;;;;;6300550;22;20445;-35
2021/08/09 13:19:25;;;;;;;2.30;1.27;;;;;;;;;;6299978;22;20653;-35
2021/08/09 13:21:51;;;;;;;1.77;0.95;;;;;;;;;;6300044;22;20027;-36
2021/08/09 13:24:16;;;;;;;3.95;1.67;;;;;;;;;;6299942;22;20539;-36
2021/08/09 13:26:41;;;;;;;2.47;1.65;;;;;;;;;;6299688;22;20003;-36
2021/08/09 13:29:07;;;;;;;4.30;2.28;;;;;;;;;;6300065;22;19999;-35
2021/08/09 13:31:32;;;;;;;4.68;1.88;;;;;;;;;;6299904;22;20133;-36
2021/08/09 13:33:57;;;;;;;4.00;1.10;;;;;;;;;;6301728;22;20048;-35
2021/08/09 13:36:23;;;;;;;2.58;0.80;;;;;;;;;;6301901;22;20439;-35
2021/08/09 13:38:48;;;;;;;9.98;1.52;;;;;;;;;;6302035;22;19999;-36
2021/08/09 13:41:14;;;;;;;12.70;2.50;;;;;;;;;;6301961;22;20464;-36
2021/08/09 13:43:39;;;;;;;4.95;2.05;;;;;;;;;;6302201;22;20516;-36
2021/08/09 13:46:10;;;;;;;2.95;1.80;;;;;;;;;;6300203;22;19999;-35
2021/08/09 13:48:37;;;;;;;3.25;1.75;;;;;;;;;;6301943;22;20003;-36
2021/08/09 13:51:03;;;;;;;2.15;1.52;;;;;;;;;;6302544;22;20207;-36
2021/08/09 13:53:28;;;;;;;3.35;1.65;;;;;;;;;;6301620;22;20742;-36
2021/08/09 13:55:53;;;;;;;3.80;1.33;;;;;;;;;;6301682;22;20007;-36
2021/08/09 13:58:18;;;;;;;5.93;2.38;;;;;;;;;;6301872;22;19992;-37
2021/08/09 14:00:44;;;;;;;3.40;1.60;;;;;;;;;;6300380;22;20003;-37
2021/08/09 14:03:09;;;;;;;6.10;1.88;;;;;;;;;;6301727;22;20006;-35
2021/08/09 14:05:34;;;;;;;4.55;2.13;;;;;;;;;;6301999;22;19995;-36
2021/08/09 14:08:00;;;;;;;5.38;2.97;;;;;;;;;;6302058;22;20534;-37
2021/08/09 14:10:25;;;;;;;6.00;1.60;;;;;;;;;;6302130;22;19999;-36
2021/08/09 14:12:51;;;;;;;3.25;1.77;;;;;;;;;;6302832;22;20003;-36
2021/08/09 14:15:16;;;;;;;8.25;1.73;;;;;;;;;;6302766;22;19996;-36
2021/08/09 14:17:41;;;;;;;2.15;1.70;;;;;;;;;;6302494;22;20397;-36
2021/08/09 14:20:07;;;;;;;1.83;1.67;;;;;;;;;;6301967;22;20049;-37
2021/08/09 14:22:32;;;;;;;3.15;1.42;;;;;;;;;;6302371;22;20061;-36
2021/08/09 14:24:58;;;;;;;2.03;1.27;;;;;;;;;;6302474;22;20452;-36
2021/08/09 14:27:27;;;;;;;36.47;2.83;;;;;;;;;;6302278;22;20058;-35
2021/08/09 14:29:52;;;;;;;5.53;1.30;;;;;;;;;;6302456;22;20011;-36
2021/08/09 14:32:17;;;;;;;6.25;1.27;;;;;;;;;;6302049;22;20009;-37
2021/08/09 14:34:43;;;;;;;1.98;1.63;;;;;;;;;;6302397;22;20000;-38
2021/08/09 14:37:08;;;;;;;2.70;1.48;;;;;;;;;;6302647;22;20076;-38
2021/08/09 14:39:34;;;;;;;3.45;1.92;;;;;;;;;;6302382;22;20003;-36